sensor_id;sensor_type;location;lat;lon;timestamp;P1;durP1;ratioP1;P2;durP2;ratioP2
80705;SDS011;70229;48.010;7.852;2023-12-22T00:19:32;6.43;;;1.30;;
80705;SDS011;70229;48.010;7.852;2023-12-22T00:46:48;15.75;;;1.38;;
80705;SDS011;70229;48.010;7.852;2023-12-22T01:31:05;4.03;;;1.40;;
80705;SDS011;70229;48.010;7.852;2023-12-22T03:14:56;2.90;;;1.60;;
80705;SDS011;70229;48.010;7.852;2023-12-22T03:17:21;7.07;;;1.10;;
80705;SDS011;70229;48.010;7.852;2023-12-22T03:19:47;6.40;;;0.95;;
80705;SDS011;70229;48.010;7.852;2023-12-22T03:22:12;5.20;;;1.45;;
80705;SDS011;70229;48.010;7.852;2023-12-22T03:24:38;5.35;;;1.08;;
80705;SDS011;70229;48.010;7.852;2023-12-22T03:27:03;3.60;;;0.80;;
80705;SDS011;70229;48.010;7.852;2023-12-22T03:29:29;7.22;;;1.85;;
80705;SDS011;70229;48.010;7.852;2023-12-22T03:31:55;8.20;;;1.15;;
80705;SDS011;70229;48.010;7.852;2023-12-22T03:34:20;4.82;;;0.80;;
80705;SDS011;70229;48.010;7.852;2023-12-22T03:36:46;3.30;;;1.33;;
80705;SDS011;70229;48.010;7.852;2023-12-22T03:39:13;2.25;;;1.30;;
80705;SDS011;70229;48.010;7.852;2023-12-22T03:41:42;3.28;;;1.15;;
80705;SDS011;70229;48.010;7.852;2023-12-22T03:44:07;3.58;;;1.27;;
80705;SDS011;70229;48.010;7.852;2023-12-22T03:46:33;4.63;;;1.13;;
80705;SDS011;70229;48.010;7.852;2023-12-22T03:48:59;8.05;;;0.90;;
80705;SDS011;70229;48.010;7.852;2023-12-22T03:51:24;9.70;;;1.52;;
80705;SDS011;70229;48.010;7.852;2023-12-22T03:53:50;6.10;;;1.13;;
80705;SDS011;70229;48.010;7.852;2023-12-22T03:56:15;2.63;;;0.85;;
80705;SDS011;70229;48.010;7.852;2023-12-22T03:58:41;5.30;;;1.25;;
80705;SDS011;70229;48.010;7.852;2023-12-22T04:01:07;3.10;;;0.93;;
80705;SDS011;70229;48.010;7.852;2023-12-22T04:03:33;4.18;;;1.40;;
80705;SDS011;70229;48.010;7.852;2023-12-22T04:06:01;9.60;;;4.20;;
80705;SDS011;70229;48.010;7.852;2023-12-22T04:08:29;5.95;;;2.53;;
80705;SDS011;70229;48.010;7.852;2023-12-22T04:10:55;8.02;;;3.20;;
80705;SDS011;70229;48.010;7.852;2023-12-22T04:13:20;6.30;;;1.83;;
80705;SDS011;70229;48.010;7.852;2023-12-22T04:15:46;9.90;;;2.88;;
80705;SDS011;70229;48.010;7.852;2023-12-22T04:18:11;4.45;;;1.60;;
80705;SDS011;70229;48.010;7.852;2023-12-22T04:20:37;4.45;;;1.70;;
80705;SDS011;70229;48.010;7.852;2023-12-22T04:23:02;3.30;;;0.88;;
80705;SDS011;70229;48.010;7.852;2023-12-22T04:25:28;3.80;;;1.30;;
80705;SDS011;70229;48.010;7.852;2023-12-22T04:27:54;7.53;;;1.65;;
80705;SDS011;70229;48.010;7.852;2023-12-22T04:30:19;3.78;;;0.90;;
80705;SDS011;70229;48.010;7.852;2023-12-22T04:32:45;4.65;;;1.90;;
80705;SDS011;70229;48.010;7.852;2023-12-22T04:35:10;3.08;;;1.17;;
80705;SDS011;70229;48.010;7.852;2023-12-22T04:37:36;7.18;;;1.75;;
80705;SDS011;70229;48.010;7.852;2023-12-22T04:40:01;3.13;;;1.65;;
80705;SDS011;70229;48.010;7.852;2023-12-22T04:42:27;6.55;;;1.95;;
80705;SDS011;70229;48.010;7.852;2023-12-22T04:44:53;3.28;;;1.38;;
80705;SDS011;70229;48.010;7.852;2023-12-22T04:47:19;7.47;;;2.05;;
80705;SDS011;70229;48.010;7.852;2023-12-22T04:49:45;4.22;;;2.03;;
80705;SDS011;70229;48.010;7.852;2023-12-22T04:52:11;5.22;;;1.48;;
80705;SDS011;70229;48.010;7.852;2023-12-22T04:54:37;2.95;;;0.95;;
80705;SDS011;70229;48.010;7.852;2023-12-22T04:57:03;5.47;;;2.13;;
80705;SDS011;70229;48.010;7.852;2023-12-22T04:59:29;5.65;;;1.98;;
80705;SDS011;70229;48.010;7.852;2023-12-22T05:01:54;9.23;;;1.38;;
80705;SDS011;70229;48.010;7.852;2023-12-22T05:04:20;9.82;;;2.53;;
80705;SDS011;70229;48.010;7.852;2023-12-22T05:06:46;3.50;;;0.98;;
80705;SDS011;70229;48.010;7.852;2023-12-22T05:09:12;4.18;;;0.80;;
80705;SDS011;70229;48.010;7.852;2023-12-22T05:11:37;4.60;;;1.10;;
80705;SDS011;70229;48.010;7.852;2023-12-22T05:14:03;6.93;;;1.58;;
80705;SDS011;70229;48.010;7.852;2023-12-22T05:16:29;6.43;;;1.77;;
80705;SDS011;70229;48.010;7.852;2023-12-22T05:18:56;17.80;;;2.20;;
80705;SDS011;70229;48.010;7.852;2023-12-22T05:21:23;7.63;;;1.70;;
80705;SDS011;70229;48.010;7.852;2023-12-22T05:23:48;7.75;;;1.38;;
80705;SDS011;70229;48.010;7.852;2023-12-22T05:26:18;3.63;;;1.20;;
80705;SDS011;70229;48.010;7.852;2023-12-22T05:28:44;8.00;;;1.90;;
80705;SDS011;70229;48.010;7.852;2023-12-22T05:31:10;3.40;;;0.95;;
80705;SDS011;70229;48.010;7.852;2023-12-22T05:33:35;5.63;;;1.73;;
80705;SDS011;70229;48.010;7.852;2023-12-22T05:36:01;9.38;;;1.55;;
80705;SDS011;70229;48.010;7.852;2023-12-22T05:38:28;7.10;;;2.75;;
80705;SDS011;70229;48.010;7.852;2023-12-22T05:40:53;3.88;;;1.20;;
80705;SDS011;70229;48.010;7.852;2023-12-22T05:43:19;3.92;;;1.58;;
80705;SDS011;70229;48.010;7.852;2023-12-22T05:45:44;9.98;;;3.10;;
80705;SDS011;70229;48.010;7.852;2023-12-22T05:48:10;7.40;;;2.88;;
80705;SDS011;70229;48.010;7.852;2023-12-22T05:50:36;6.72;;;2.30;;
80705;SDS011;70229;48.010;7.852;2023-12-22T05:53:01;6.13;;;2.33;;
80705;SDS011;70229;48.010;7.852;2023-12-22T05:55:27;6.35;;;2.28;;
80705;SDS011;70229;48.010;7.852;2023-12-22T05:57:55;8.57;;;2.83;;
80705;SDS011;70229;48.010;7.852;2023-12-22T06:00:21;9.93;;;2.65;;
80705;SDS011;70229;48.010;7.852;2023-12-22T06:02:47;7.57;;;3.15;;
80705;SDS011;70229;48.010;7.852;2023-12-22T06:05:13;4.95;;;2.10;;
80705;SDS011;70229;48.010;7.852;2023-12-22T06:07:38;9.43;;;2.03;;
80705;SDS011;70229;48.010;7.852;2023-12-22T06:10:05;6.82;;;2.70;;
80705;SDS011;70229;48.010;7.852;2023-12-22T06:12:32;9.48;;;2.95;;
80705;SDS011;70229;48.010;7.852;2023-12-22T06:14:57;10.07;;;3.58;;
80705;SDS011;70229;48.010;7.852;2023-12-22T06:17:23;5.25;;;2.38;;
80705;SDS011;70229;48.010;7.852;2023-12-22T06:19:49;12.02;;;3.08;;
80705;SDS011;70229;48.010;7.852;2023-12-22T06:22:14;11.10;;;2.40;;
80705;SDS011;70229;48.010;7.852;2023-12-22T06:24:40;18.02;;;3.30;;
80705;SDS011;70229;48.010;7.852;2023-12-22T06:27:05;9.65;;;3.10;;
80705;SDS011;70229;48.010;7.852;2023-12-22T06:29:31;15.13;;;4.65;;
80705;SDS011;70229;48.010;7.852;2023-12-22T06:31:57;6.30;;;2.28;;
80705;SDS011;70229;48.010;7.852;2023-12-22T06:34:23;6.85;;;2.75;;
80705;SDS011;70229;48.010;7.852;2023-12-22T06:36:49;7.32;;;3.05;;
80705;SDS011;70229;48.010;7.852;2023-12-22T06:39:15;12.82;;;4.50;;
80705;SDS011;70229;48.010;7.852;2023-12-22T06:41:40;6.32;;;2.83;;
80705;SDS011;70229;48.010;7.852;2023-12-22T06:44:06;13.77;;;3.10;;
80705;SDS011;70229;48.010;7.852;2023-12-22T06:46:32;11.48;;;2.95;;
80705;SDS011;70229;48.010;7.852;2023-12-22T06:48:58;5.07;;;1.83;;
80705;SDS011;70229;48.010;7.852;2023-12-22T06:53:51;4.43;;;1.35;;
80705;SDS011;70229;48.010;7.852;2023-12-22T06:56:20;6.90;;;2.65;;
80705;SDS011;70229;48.010;7.852;2023-12-22T06:58:48;6.00;;;2.60;;
80705;SDS011;70229;48.010;7.852;2023-12-22T07:01:48;9.65;;;2.33;;
80705;SDS011;70229;48.010;7.852;2023-12-22T07:04:07;13.50;;;2.78;;
80705;SDS011;70229;48.010;7.852;2023-12-22T07:06:33;9.90;;;3.22;;
80705;SDS011;70229;48.010;7.852;2023-12-22T07:11:44;13.85;;;3.63;;
80705;SDS011;70229;48.010;7.852;2023-12-22T07:14:13;7.97;;;2.53;;
80705;SDS011;70229;48.010;7.852;2023-12-22T07:16:40;9.35;;;3.55;;
80705;SDS011;70229;48.010;7.852;2023-12-22T07:19:07;8.25;;;2.63;;
80705;SDS011;70229;48.010;7.852;2023-12-22T07:21:32;6.78;;;1.88;;
80705;SDS011;70229;48.010;7.852;2023-12-22T07:23:58;5.65;;;1.65;;
80705;SDS011;70229;48.010;7.852;2023-12-22T07:26:24;7.65;;;2.63;;
80705;SDS011;70229;48.010;7.852;2023-12-22T07:28:51;7.53;;;2.63;;
80705;SDS011;70229;48.010;7.852;2023-12-22T07:31:19;8.35;;;2.47;;
80705;SDS011;70229;48.010;7.852;2023-12-22T07:33:45;4.95;;;1.75;;
80705;SDS011;70229;48.010;7.852;2023-12-22T07:36:11;6.78;;;1.95;;
80705;SDS011;70229;48.010;7.852;2023-12-22T07:38:37;3.17;;;1.40;;
80705;SDS011;70229;48.010;7.852;2023-12-22T07:41:04;7.47;;;1.55;;
80705;SDS011;70229;48.010;7.852;2023-12-22T07:43:30;7.93;;;1.75;;
80705;SDS011;70229;48.010;7.852;2023-12-22T07:45:56;9.43;;;2.72;;
80705;SDS011;70229;48.010;7.852;2023-12-22T07:48:21;10.80;;;2.22;;
80705;SDS011;70229;48.010;7.852;2023-12-22T07:50:47;13.38;;;3.97;;
80705;SDS011;70229;48.010;7.852;2023-12-22T07:53:12;6.30;;;2.50;;
80705;SDS011;70229;48.010;7.852;2023-12-22T07:55:38;7.00;;;2.70;;
80705;SDS011;70229;48.010;7.852;2023-12-22T07:58:07;6.95;;;1.83;;
80705;SDS011;70229;48.010;7.852;2023-12-22T08:00:32;6.75;;;1.63;;
80705;SDS011;70229;48.010;7.852;2023-12-22T08:02:58;7.50;;;2.20;;
80705;SDS011;70229;48.010;7.852;2023-12-22T08:05:25;6.32;;;2.55;;
80705;SDS011;70229;48.010;7.852;2023-12-22T08:07:50;10.05;;;2.60;;
80705;SDS011;70229;48.010;7.852;2023-12-22T08:10:16;10.35;;;2.85;;
80705;SDS011;70229;48.010;7.852;2023-12-22T08:12:42;9.25;;;2.00;;
80705;SDS011;70229;48.010;7.852;2023-12-22T08:15:08;5.60;;;2.00;;
80705;SDS011;70229;48.010;7.852;2023-12-22T08:17:35;9.32;;;2.47;;
80705;SDS011;70229;48.010;7.852;2023-12-22T08:20:02;10.10;;;2.67;;
80705;SDS011;70229;48.010;7.852;2023-12-22T08:22:29;8.80;;;1.95;;
80705;SDS011;70229;48.010;7.852;2023-12-22T08:24:54;5.00;;;2.42;;
80705;SDS011;70229;48.010;7.852;2023-12-22T08:27:20;3.53;;;1.30;;
80705;SDS011;70229;48.010;7.852;2023-12-22T08:29:45;3.42;;;1.23;;
80705;SDS011;70229;48.010;7.852;2023-12-22T08:32:11;8.32;;;2.78;;
80705;SDS011;70229;48.010;7.852;2023-12-22T08:34:36;5.32;;;2.38;;
80705;SDS011;70229;48.010;7.852;2023-12-22T08:37:02;15.60;;;3.75;;
80705;SDS011;70229;48.010;7.852;2023-12-22T08:39:27;6.38;;;2.47;;
80705;SDS011;70229;48.010;7.852;2023-12-22T08:41:53;8.35;;;2.58;;
80705;SDS011;70229;48.010;7.852;2023-12-22T08:44:19;4.85;;;1.77;;
80705;SDS011;70229;48.010;7.852;2023-12-22T08:46:44;8.20;;;2.38;;
80705;SDS011;70229;48.010;7.852;2023-12-22T08:49:10;4.88;;;2.00;;
80705;SDS011;70229;48.010;7.852;2023-12-22T08:51:36;7.90;;;2.13;;
80705;SDS011;70229;48.010;7.852;2023-12-22T08:54:02;8.13;;;2.03;;
80705;SDS011;70229;48.010;7.852;2023-12-22T08:56:29;12.48;;;3.92;;
80705;SDS011;70229;48.010;7.852;2023-12-22T08:58:54;5.20;;;2.25;;
80705;SDS011;70229;48.010;7.852;2023-12-22T09:01:21;11.43;;;3.00;;
80705;SDS011;70229;48.010;7.852;2023-12-22T09:03:47;8.77;;;2.78;;
80705;SDS011;70229;48.010;7.852;2023-12-22T09:06:19;9.70;;;2.40;;
80705;SDS011;70229;48.010;7.852;2023-12-22T09:08:47;9.32;;;2.97;;
80705;SDS011;70229;48.010;7.852;2023-12-22T09:11:13;10.70;;;3.13;;
80705;SDS011;70229;48.010;7.852;2023-12-22T09:13:41;6.93;;;2.28;;
80705;SDS011;70229;48.010;7.852;2023-12-22T09:16:10;6.13;;;1.83;;
80705;SDS011;70229;48.010;7.852;2023-12-22T09:22:32;5.80;;;2.25;;
80705;SDS011;70229;48.010;7.852;2023-12-22T09:30:05;7.63;;;1.67;;
80705;SDS011;70229;48.010;7.852;2023-12-22T09:55:46;11.60;;;4.45;;
80705;SDS011;70229;48.010;7.852;2023-12-22T10:05:29;5.72;;;2.10;;
80705;SDS011;70229;48.010;7.852;2023-12-22T10:07:55;12.88;;;3.53;;
80705;SDS011;70229;48.010;7.852;2023-12-22T10:10:55;5.22;;;1.80;;
80705;SDS011;70229;48.010;7.852;2023-12-22T10:14:07;6.75;;;2.22;;
80705;SDS011;70229;48.010;7.852;2023-12-22T10:16:53;9.15;;;2.10;;
80705;SDS011;70229;48.010;7.852;2023-12-22T10:19:25;5.63;;;1.90;;
80705;SDS011;70229;48.010;7.852;2023-12-22T10:49:28;4.47;;;2.17;;
80705;SDS011;70229;48.010;7.852;2023-12-22T10:52:28;7.90;;;1.33;;
80705;SDS011;70229;48.010;7.852;2023-12-22T11:02:34;4.72;;;1.55;;
80705;SDS011;70229;48.010;7.852;2023-12-22T11:05:01;4.90;;;0.93;;
80705;SDS011;70229;48.010;7.852;2023-12-22T11:11:40;2.90;;;0.80;;
80705;SDS011;70229;48.010;7.852;2023-12-22T11:18:15;5.78;;;1.77;;
80705;SDS011;70229;48.010;7.852;2023-12-22T11:58:57;2.10;;;0.93;;
80705;SDS011;70229;48.010;7.852;2023-12-22T12:18:21;1.52;;;0.75;;
80705;SDS011;70229;48.010;7.852;2023-12-22T12:21:26;1.25;;;0.60;;
80705;SDS011;70229;48.010;7.852;2023-12-22T12:42:06;1.90;;;0.90;;
80705;SDS011;70229;48.010;7.852;2023-12-22T12:58:51;1.35;;;0.35;;
80705;SDS011;70229;48.010;7.852;2023-12-22T14:41:01;4.63;;;0.52;;
80705;SDS011;70229;48.010;7.852;2023-12-22T14:43:26;0.57;;;0.30;;
80705;SDS011;70229;48.010;7.852;2023-12-22T14:45:52;4.78;;;0.52;;
80705;SDS011;70229;48.010;7.852;2023-12-22T14:48:17;0.70;;;0.30;;
80705;SDS011;70229;48.010;7.852;2023-12-22T14:50:43;1.17;;;0.40;;
80705;SDS011;70229;48.010;7.852;2023-12-22T14:53:08;2.17;;;0.70;;
80705;SDS011;70229;48.010;7.852;2023-12-22T14:55:34;1.45;;;0.43;;
80705;SDS011;70229;48.010;7.852;2023-12-22T14:57:59;1.58;;;0.63;;
80705;SDS011;70229;48.010;7.852;2023-12-22T15:00:25;1.52;;;0.50;;
80705;SDS011;70229;48.010;7.852;2023-12-22T15:02:50;1.38;;;0.22;;
80705;SDS011;70229;48.010;7.852;2023-12-22T15:05:16;2.08;;;0.95;;
80705;SDS011;70229;48.010;7.852;2023-12-22T15:07:42;2.83;;;0.95;;
80705;SDS011;70229;48.010;7.852;2023-12-22T15:10:08;1.55;;;0.50;;
80705;SDS011;70229;48.010;7.852;2023-12-22T15:12:35;2.65;;;0.75;;
80705;SDS011;70229;48.010;7.852;2023-12-22T15:15:02;1.30;;;0.47;;
80705;SDS011;70229;48.010;7.852;2023-12-22T15:17:29;2.47;;;0.55;;
80705;SDS011;70229;48.010;7.852;2023-12-22T15:19:55;0.57;;;0.40;;
80705;SDS011;70229;48.010;7.852;2023-12-22T15:22:20;1.85;;;0.50;;
80705;SDS011;70229;48.010;7.852;2023-12-22T15:24:47;1.83;;;0.40;;
80705;SDS011;70229;48.010;7.852;2023-12-22T15:27:13;2.92;;;0.88;;
80705;SDS011;70229;48.010;7.852;2023-12-22T15:29:38;1.70;;;0.65;;
80705;SDS011;70229;48.010;7.852;2023-12-22T15:32:06;1.38;;;0.75;;
80705;SDS011;70229;48.010;7.852;2023-12-22T15:34:32;1.40;;;0.40;;
80705;SDS011;70229;48.010;7.852;2023-12-22T15:36:57;0.98;;;0.40;;
80705;SDS011;70229;48.010;7.852;2023-12-22T15:39:26;4.05;;;1.17;;
80705;SDS011;70229;48.010;7.852;2023-12-22T15:42:03;2.55;;;1.10;;
80705;SDS011;70229;48.010;7.852;2023-12-22T15:45:01;0.75;;;0.30;;
80705;SDS011;70229;48.010;7.852;2023-12-22T15:47:26;1.27;;;0.40;;
80705;SDS011;70229;48.010;7.852;2023-12-22T15:50:00;0.93;;;0.50;;
80705;SDS011;70229;48.010;7.852;2023-12-22T15:52:31;1.57;;;0.60;;
80705;SDS011;70229;48.010;7.852;2023-12-22T15:58:55;0.93;;;0.43;;
80705;SDS011;70229;48.010;7.852;2023-12-22T16:01:59;0.82;;;0.40;;
80705;SDS011;70229;48.010;7.852;2023-12-22T16:07:57;0.90;;;0.43;;
80705;SDS011;70229;48.010;7.852;2023-12-22T16:10:35;1.65;;;0.70;;
80705;SDS011;70229;48.010;7.852;2023-12-22T16:17:05;1.05;;;0.50;;
80705;SDS011;70229;48.010;7.852;2023-12-22T16:19:42;1.35;;;0.52;;
80705;SDS011;70229;48.010;7.852;2023-12-22T16:22:22;1.45;;;0.63;;
80705;SDS011;70229;48.010;7.852;2023-12-22T16:25:09;2.45;;;0.85;;
80705;SDS011;70229;48.010;7.852;2023-12-22T16:27:47;0.95;;;0.40;;
80705;SDS011;70229;48.010;7.852;2023-12-22T16:30:40;7.72;;;0.98;;
80705;SDS011;70229;48.010;7.852;2023-12-22T16:33:42;1.55;;;0.70;;
80705;SDS011;70229;48.010;7.852;2023-12-22T16:36:31;1.95;;;0.80;;
80705;SDS011;70229;48.010;7.852;2023-12-22T16:39:31;1.95;;;0.77;;
80705;SDS011;70229;48.010;7.852;2023-12-22T16:42:03;1.90;;;1.00;;
80705;SDS011;70229;48.010;7.852;2023-12-22T16:45:12;2.28;;;0.90;;
80705;SDS011;70229;48.010;7.852;2023-12-22T16:47:54;2.72;;;0.90;;
80705;SDS011;70229;48.010;7.852;2023-12-22T16:50:40;2.72;;;1.08;;
80705;SDS011;70229;48.010;7.852;2023-12-22T16:56:53;1.90;;;0.95;;
80705;SDS011;70229;48.010;7.852;2023-12-22T17:00:27;1.88;;;0.75;;
80705;SDS011;70229;48.010;7.852;2023-12-22T17:03:25;1.92;;;0.95;;
80705;SDS011;70229;48.010;7.852;2023-12-22T17:06:00;3.67;;;1.40;;
80705;SDS011;70229;48.010;7.852;2023-12-22T17:11:58;2.03;;;0.80;;
80705;SDS011;70229;48.010;7.852;2023-12-22T17:14:29;3.22;;;0.95;;
80705;SDS011;70229;48.010;7.852;2023-12-22T22:53:16;1.95;;;0.68;;
80705;SDS011;70229;48.010;7.852;2023-12-22T22:55:41;2.47;;;1.58;;
80705;SDS011;70229;48.010;7.852;2023-12-22T22:58:07;1.40;;;0.55;;
80705;SDS011;70229;48.010;7.852;2023-12-22T23:00:32;3.22;;;0.50;;
80705;SDS011;70229;48.010;7.852;2023-12-22T23:02:58;4.00;;;0.70;;
80705;SDS011;70229;48.010;7.852;2023-12-22T23:05:24;3.38;;;0.70;;
80705;SDS011;70229;48.010;7.852;2023-12-22T23:07:49;0.88;;;0.40;;
80705;SDS011;70229;48.010;7.852;2023-12-22T23:10:15;1.90;;;0.75;;
80705;SDS011;70229;48.010;7.852;2023-12-22T23:12:42;3.47;;;0.98;;
80705;SDS011;70229;48.010;7.852;2023-12-22T23:15:07;1.45;;;0.60;;
80705;SDS011;70229;48.010;7.852;2023-12-22T23:17:34;2.35;;;0.75;;
80705;SDS011;70229;48.010;7.852;2023-12-22T23:19:59;2.03;;;0.68;;
80705;SDS011;70229;48.010;7.852;2023-12-22T23:22:25;1.05;;;0.30;;
80705;SDS011;70229;48.010;7.852;2023-12-22T23:24:51;1.25;;;0.30;;
80705;SDS011;70229;48.010;7.852;2023-12-22T23:27:17;0.93;;;0.43;;
80705;SDS011;70229;48.010;7.852;2023-12-22T23:29:42;1.35;;;0.60;;
80705;SDS011;70229;48.010;7.852;2023-12-22T23:32:08;2.30;;;0.40;;
80705;SDS011;70229;48.010;7.852;2023-12-22T23:34:34;0.45;;;0.25;;
80705;SDS011;70229;48.010;7.852;2023-12-22T23:36:59;6.28;;;0.90;;
80705;SDS011;70229;48.010;7.852;2023-12-22T23:39:25;1.00;;;0.50;;
80705;SDS011;70229;48.010;7.852;2023-12-22T23:41:51;1.23;;;0.60;;
80705;SDS011;70229;48.010;7.852;2023-12-22T23:44:18;2.22;;;1.02;;
80705;SDS011;70229;48.010;7.852;2023-12-22T23:46:43;2.85;;;0.93;;
80705;SDS011;70229;48.010;7.852;2023-12-22T23:49:09;1.20;;;0.40;;
80705;SDS011;70229;48.010;7.852;2023-12-22T23:51:35;3.00;;;0.43;;
80705;SDS011;70229;48.010;7.852;2023-12-22T23:54:00;1.27;;;0.52;;
80705;SDS011;70229;48.010;7.852;2023-12-22T23:56:26;2.10;;;0.77;;
80705;SDS011;70229;48.010;7.852;2023-12-22T23:58:51;0.52;;;0.30;;
